createdAt,value
2017-10-15T00:00:56.025Z,0
2017-10-15T00:01:56.739Z,0
2017-10-15T00:02:57.467Z,0
2017-10-15T00:03:58.188Z,0
2017-10-15T00:04:58.905Z,0
2017-10-15T00:05:59.617Z,0
2017-10-15T00:07:00.330Z,0
2017-10-15T00:08:01.058Z,0
2017-10-15T00:09:01.771Z,0
2017-10-15T00:10:02.500Z,0
2017-10-15T00:11:03.225Z,0
2017-10-15T00:12:03.941Z,0
2017-10-15T00:13:04.655Z,0
2017-10-15T00:14:05.374Z,0
2017-10-15T00:15:06.083Z,0
2017-10-15T00:16:06.797Z,0
2017-10-15T00:17:07.511Z,0
2017-10-15T00:18:08.224Z,0
2017-10-15T00:19:08.937Z,0
2017-10-15T00:20:09.663Z,0
2017-10-15T00:21:10.376Z,0
2017-10-15T00:22:11.091Z,0
2017-10-15T00:23:11.806Z,0
2017-10-15T00:24:12.520Z,0
2017-10-15T00:25:13.242Z,0
2017-10-15T00:26:13.949Z,0
2017-10-15T00:27:14.663Z,0
2017-10-15T00:28:15.387Z,0
2017-10-15T00:29:16.101Z,0
2017-10-15T00:30:16.816Z,0
2017-10-15T00:31:17.528Z,0
2017-10-15T00:32:18.257Z,0
2017-10-15T00:33:18.969Z,0
2017-10-15T00:34:19.695Z,0
2017-10-15T00:35:20.424Z,0
2017-10-15T00:36:21.138Z,0
2017-10-15T00:37:21.857Z,0
2017-10-15T00:38:22.570Z,0
2017-10-15T00:39:23.279Z,0
2017-10-15T00:40:23.990Z,0
2017-10-15T00:41:24.703Z,0
2017-10-15T00:42:25.416Z,0
2017-10-15T00:43:26.142Z,0
2017-10-15T00:44:26.857Z,0
2017-10-15T00:45:27.571Z,0
2017-10-15T00:46:28.286Z,0
2017-10-15T00:47:29.020Z,0
2017-10-15T00:48:29.714Z,0
2017-10-15T00:49:30.428Z,0
2017-10-15T00:50:31.142Z,0
2017-10-15T00:51:31.867Z,0
2017-10-15T00:52:32.579Z,0
2017-10-15T00:53:33.290Z,0
2017-10-15T00:54:34.002Z,0
2017-10-15T00:55:34.716Z,0
2017-10-15T00:56:35.430Z,0
2017-10-15T00:57:36.159Z,0
2017-10-15T00:58:36.870Z,0
2017-10-15T00:59:37.583Z,0
2017-10-15T01:00:38.296Z,0
2017-10-15T01:01:39.010Z,0
2017-10-15T01:02:39.747Z,0
2017-10-15T01:03:40.440Z,0
2017-10-15T01:04:41.168Z,0
2017-10-15T01:05:41.883Z,0
2017-10-15T01:06:42.614Z,0
2017-10-15T01:07:43.308Z,0
2017-10-15T01:08:44.021Z,0
2017-10-15T01:09:44.734Z,0
2017-10-15T01:10:45.448Z,0
2017-10-15T01:11:46.162Z,0
2017-10-15T01:12:46.876Z,0
2017-10-15T01:13:47.604Z,0
2017-10-15T01:14:48.319Z,0
2017-10-15T01:15:49.031Z,0
2017-10-15T01:16:49.746Z,0
2017-10-15T01:17:50.457Z,0
2017-10-15T01:18:51.170Z,0
2017-10-15T01:19:51.882Z,0
2017-10-15T01:20:52.596Z,0
2017-10-15T01:21:53.309Z,0
2017-10-15T01:22:54.023Z,0
2017-10-15T01:23:54.747Z,0
2017-10-15T01:24:55.461Z,0
2017-10-15T01:25:56.188Z,0
2017-10-15T01:26:56.901Z,0
2017-10-15T01:27:57.613Z,0
2017-10-15T01:28:58.326Z,0
2017-10-15T01:29:59.040Z,0
2017-10-15T01:30:59.753Z,0
2017-10-15T01:32:00.467Z,0
2017-10-15T01:33:01.195Z,0
2017-10-15T01:34:01.913Z,0
2017-10-15T01:35:02.624Z,0
2017-10-15T01:36:03.352Z,0
2017-10-15T01:37:04.081Z,0
2017-10-15T01:38:04.797Z,0
2017-10-15T01:39:05.513Z,0
2017-10-15T01:40:06.237Z,0
2017-10-15T01:41:06.951Z,0
2017-10-15T01:42:07.664Z,0
2017-10-15T01:43:08.378Z,0
2017-10-15T01:44:09.091Z,0
2017-10-15T01:45:09.818Z,0
2017-10-15T01:46:10.531Z,0
2017-10-15T01:47:11.243Z,0
2017-10-15T01:48:11.956Z,0
2017-10-15T01:49:12.668Z,0
2017-10-15T01:50:13.385Z,0
2017-10-15T01:51:14.109Z,0
2017-10-15T01:52:14.824Z,0
2017-10-15T01:53:15.550Z,0
2017-10-15T01:54:16.269Z,0
2017-10-15T01:55:16.990Z,0
2017-10-15T01:56:17.704Z,0
2017-10-15T01:57:18.431Z,0
2017-10-15T01:58:19.144Z,0
2017-10-15T01:59:19.868Z,0
2017-10-15T02:00:20.580Z,0
2017-10-15T02:01:21.309Z,0
2017-10-15T02:02:22.035Z,0
2017-10-15T02:03:22.749Z,0
2017-10-15T02:04:23.498Z,0
2017-10-15T02:05:24.190Z,0
2017-10-15T02:06:24.918Z,0
2017-10-15T02:07:25.632Z,0
2017-10-15T02:08:26.348Z,0
2017-10-15T02:09:27.059Z,0
2017-10-15T02:10:27.771Z,0
2017-10-15T02:11:28.484Z,0
2017-10-15T02:12:29.212Z,0
2017-10-15T02:13:29.926Z,0
2017-10-15T02:14:30.637Z,0
2017-10-15T02:15:31.351Z,0
2017-10-15T02:16:32.063Z,0
2017-10-15T02:17:32.775Z,0
2017-10-15T02:18:33.489Z,0
2017-10-15T02:19:34.202Z,0
2017-10-15T02:20:34.928Z,0
2017-10-15T02:21:35.640Z,0
2017-10-15T02:22:36.355Z,0
2017-10-15T02:23:37.070Z,0
2017-10-15T02:24:37.797Z,0
2017-10-15T02:25:38.511Z,0
2017-10-15T02:26:39.224Z,0
2017-10-15T02:27:39.952Z,0
2017-10-15T02:28:40.666Z,0
2017-10-15T02:29:41.379Z,0
2017-10-15T02:30:42.106Z,0
2017-10-15T02:31:42.827Z,0
2017-10-15T02:32:43.532Z,0
2017-10-15T02:33:44.244Z,0
2017-10-15T02:34:44.972Z,0
2017-10-15T02:35:45.685Z,0
2017-10-15T02:36:46.396Z,0
2017-10-15T02:37:47.108Z,0
2017-10-15T02:38:47.822Z,0
2017-10-15T02:39:48.535Z,0
2017-10-15T02:40:49.249Z,0
2017-10-15T02:41:49.963Z,0
2017-10-15T02:42:50.677Z,0
2017-10-15T02:43:51.389Z,0
2017-10-15T02:44:52.117Z,0
2017-10-15T02:45:52.844Z,0
2017-10-15T02:46:53.557Z,0
2017-10-15T02:47:54.271Z,0
2017-10-15T02:48:54.997Z,0
2017-10-15T02:49:55.712Z,0
2017-10-15T02:50:56.433Z,0
2017-10-15T02:51:57.139Z,0
2017-10-15T02:52:57.852Z,0
2017-10-15T02:53:58.563Z,0
2017-10-15T02:54:59.277Z,0
2017-10-15T02:55:59.988Z,0
2017-10-15T02:57:00.702Z,0
2017-10-15T02:58:01.428Z,0
2017-10-15T02:59:02.143Z,0
2017-10-15T03:00:02.858Z,0
2017-10-15T03:01:03.573Z,0
2017-10-15T03:02:04.291Z,0
2017-10-15T03:03:04.997Z,0
2017-10-15T03:04:05.708Z,0
2017-10-15T03:05:06.419Z,0
2017-10-15T03:06:07.133Z,0
2017-10-15T03:07:07.845Z,0
2017-10-15T03:08:08.559Z,0
2017-10-15T03:09:09.271Z,0
2017-10-15T03:10:09.985Z,0
2017-10-15T03:11:10.698Z,0
2017-10-15T03:12:11.412Z,0
2017-10-15T03:13:12.141Z,0
2017-10-15T03:14:12.853Z,0
2017-10-15T03:15:13.566Z,0
2017-10-15T03:16:14.278Z,0
2017-10-15T03:17:14.991Z,0
2017-10-15T03:18:15.706Z,0
2017-10-15T03:19:16.420Z,0
2017-10-15T03:20:17.147Z,0
2017-10-15T03:21:17.860Z,0
2017-10-15T03:22:18.573Z,0
2017-10-15T03:23:19.286Z,0
2017-10-15T03:24:19.997Z,0
2017-10-15T03:25:20.709Z,0
2017-10-15T03:26:21.421Z,0
2017-10-15T03:27:22.149Z,0
2017-10-15T03:28:22.856Z,0
2017-10-15T03:29:23.567Z,0
2017-10-15T03:30:24.284Z,0
2017-10-15T03:31:24.992Z,0
2017-10-15T03:32:25.707Z,0
2017-10-15T03:33:26.419Z,0
2017-10-15T03:34:27.127Z,0
2017-10-15T03:35:27.840Z,0
2017-10-15T03:36:28.552Z,0
2017-10-15T03:37:29.266Z,0
2017-10-15T03:38:29.979Z,0
2017-10-15T03:39:30.698Z,0
2017-10-15T03:40:31.407Z,0
2017-10-15T03:41:32.118Z,0
2017-10-15T03:42:32.830Z,0
2017-10-15T03:43:33.547Z,0
2017-10-15T03:44:34.263Z,0
2017-10-15T03:45:34.974Z,0
2017-10-15T03:46:35.700Z,0
2017-10-15T03:47:36.419Z,0
2017-10-15T03:48:37.124Z,0
2017-10-15T03:49:37.837Z,0
2017-10-15T03:50:38.548Z,0
2017-10-15T03:51:39.258Z,0
2017-10-15T03:52:39.970Z,0
2017-10-15T03:53:40.680Z,0
2017-10-15T03:54:41.389Z,0
2017-10-15T03:55:42.111Z,0
2017-10-15T03:56:42.824Z,0
2017-10-15T03:57:43.549Z,0
2017-10-15T03:58:44.262Z,0
2017-10-15T03:59:44.977Z,0
2017-10-15T04:00:45.690Z,0
2017-10-15T04:01:46.410Z,0
2017-10-15T04:02:47.122Z,0
2017-10-15T04:03:47.836Z,0
2017-10-15T04:04:48.547Z,0
2017-10-15T04:05:49.260Z,0
2017-10-15T04:06:49.971Z,0
2017-10-15T04:07:50.682Z,0
2017-10-15T04:08:51.394Z,0
2017-10-15T04:09:52.102Z,0
2017-10-15T04:10:52.812Z,0
2017-10-15T04:11:53.526Z,0
2017-10-15T04:12:54.237Z,0
2017-10-15T04:13:54.962Z,0
2017-10-15T04:14:55.674Z,0
2017-10-15T04:15:56.387Z,0
2017-10-15T04:16:57.098Z,0
2017-10-15T04:17:57.809Z,0
2017-10-15T04:18:58.533Z,0
2017-10-15T04:19:59.243Z,0
2017-10-15T04:20:59.954Z,0
2017-10-15T04:22:00.663Z,0
2017-10-15T04:23:01.388Z,0
2017-10-15T04:24:02.101Z,0
2017-10-15T04:25:02.825Z,0
2017-10-15T04:26:03.535Z,0
2017-10-15T04:27:04.247Z,0
2017-10-15T04:28:04.972Z,0
2017-10-15T04:29:05.698Z,0
2017-10-15T04:30:06.419Z,0
2017-10-15T04:31:07.120Z,0
2017-10-15T04:32:07.834Z,0
2017-10-15T04:33:08.543Z,0
2017-10-15T04:34:09.253Z,0
2017-10-15T04:35:09.964Z,0
2017-10-15T04:36:10.676Z,0
2017-10-15T04:37:11.387Z,0
2017-10-15T04:38:12.097Z,0
2017-10-15T04:39:12.813Z,0
2017-10-15T04:40:13.521Z,0
2017-10-15T04:41:14.245Z,0
2017-10-15T04:42:14.958Z,0
2017-10-15T04:43:15.666Z,0
2017-10-15T04:44:16.378Z,0
2017-10-15T04:45:17.089Z,0
2017-10-15T04:46:17.799Z,0
2017-10-15T04:47:18.511Z,0
2017-10-15T04:48:19.236Z,0
2017-10-15T04:49:19.947Z,0
2017-10-15T04:50:20.659Z,0
2017-10-15T04:51:21.369Z,0
2017-10-15T04:52:22.083Z,0
2017-10-15T04:53:22.792Z,0
2017-10-15T04:54:23.503Z,0
2017-10-15T04:55:24.214Z,0
2017-10-15T04:56:24.926Z,0
2017-10-15T04:57:25.639Z,0
2017-10-15T04:58:26.351Z,0
2017-10-15T04:59:27.077Z,0
2017-10-15T05:00:27.775Z,0
2017-10-15T05:01:28.485Z,0
2017-10-15T05:02:29.196Z,0
2017-10-15T05:03:29.907Z,0
2017-10-15T05:04:30.621Z,0
2017-10-15T05:05:31.331Z,0
2017-10-15T05:06:32.057Z,0
2017-10-15T05:07:32.767Z,0
2017-10-15T05:08:33.479Z,0
2017-10-15T05:09:34.189Z,0
2017-10-15T05:10:34.900Z,0
2017-10-15T05:11:35.611Z,0
2017-10-15T05:12:36.321Z,0
2017-10-15T05:13:37.045Z,0
2017-10-15T05:14:37.760Z,0
2017-10-15T05:15:38.467Z,0
2017-10-15T05:16:39.178Z,0
2017-10-15T05:17:39.889Z,0
2017-10-15T05:18:40.600Z,0
2017-10-15T05:19:41.310Z,0
2017-10-15T05:20:42.023Z,0
2017-10-15T05:21:42.732Z,0
2017-10-15T05:22:43.444Z,4
2017-10-15T05:23:44.160Z,4
2017-10-15T05:24:44.870Z,0
2017-10-15T05:25:45.582Z,4
2017-10-15T05:26:46.305Z,4
2017-10-15T05:27:47.017Z,8
2017-10-15T05:28:47.744Z,8
2017-10-15T05:29:48.452Z,8
2017-10-15T05:30:49.163Z,8
2017-10-15T05:31:49.873Z,8
2017-10-15T05:32:50.584Z,12
2017-10-15T05:33:51.296Z,16
2017-10-15T05:34:52.009Z,20
2017-10-15T05:35:52.734Z,24
2017-10-15T05:36:53.459Z,24
2017-10-15T05:37:54.172Z,28
2017-10-15T05:38:54.883Z,36
2017-10-15T05:39:55.598Z,40
2017-10-15T05:40:56.321Z,48
2017-10-15T05:41:57.032Z,60
2017-10-15T05:42:57.745Z,64
2017-10-15T05:43:58.457Z,76
2017-10-15T05:44:59.170Z,88
2017-10-15T05:45:59.883Z,100
2017-10-15T05:47:00.597Z,116
2017-10-15T05:48:01.310Z,132
2017-10-15T05:49:02.024Z,144
2017-10-15T05:50:02.743Z,164
2017-10-15T05:51:03.452Z,184
2017-10-15T05:52:04.168Z,200
2017-10-15T05:53:04.881Z,224
2017-10-15T05:54:05.595Z,244
2017-10-15T05:55:06.320Z,268
2017-10-15T05:56:07.033Z,292
2017-10-15T05:57:07.747Z,316
2017-10-15T05:58:08.461Z,340
2017-10-15T05:59:09.177Z,368
2017-10-15T06:00:09.894Z,396
2017-10-15T06:01:10.609Z,424
2017-10-15T06:02:11.323Z,452
2017-10-15T06:03:12.039Z,484
2017-10-15T06:04:12.767Z,512
2017-10-15T06:05:13.482Z,548
2017-10-15T06:06:14.195Z,580
2017-10-15T06:07:14.919Z,612
2017-10-15T06:08:15.636Z,648
2017-10-15T06:09:16.351Z,684
2017-10-15T06:10:17.066Z,728
2017-10-15T06:11:17.782Z,788
2017-10-15T06:12:18.495Z,876
2017-10-15T06:13:19.210Z,960
2017-10-15T06:14:19.925Z,1024
2017-10-15T06:15:20.640Z,1084
2017-10-15T06:16:21.357Z,1144
2017-10-15T06:17:22.073Z,1216
2017-10-15T06:18:22.790Z,1304
2017-10-15T06:19:23.508Z,1364
2017-10-15T06:20:24.224Z,1436
2017-10-15T06:21:24.941Z,1512
2017-10-15T06:22:25.658Z,1580
2017-10-15T06:23:26.374Z,1660
2017-10-15T06:24:27.090Z,1760
2017-10-15T06:25:27.808Z,1880
2017-10-15T06:26:28.537Z,1996
2017-10-15T06:27:29.253Z,2124
2017-10-15T06:28:29.969Z,2272
2017-10-15T06:29:30.686Z,2424
2017-10-15T06:30:31.406Z,2552
2017-10-15T06:31:32.124Z,2700
2017-10-15T06:32:32.839Z,2844
2017-10-15T06:33:33.556Z,2932
2017-10-15T06:34:34.276Z,3060
2017-10-15T06:35:34.990Z,3220
2017-10-15T06:36:35.707Z,3392
2017-10-15T06:37:36.425Z,3524
2017-10-15T06:38:37.147Z,3656
2017-10-15T06:39:37.865Z,3784
2017-10-15T06:40:38.586Z,3832
2017-10-15T06:41:39.304Z,3948
2017-10-15T06:42:40.037Z,4076
2017-10-15T06:43:40.755Z,4172
2017-10-15T06:44:41.475Z,4264
2017-10-15T06:45:42.194Z,4328
2017-10-15T06:46:42.917Z,4456
2017-10-15T06:47:43.631Z,4604
2017-10-15T06:48:44.352Z,4756
2017-10-15T06:49:45.073Z,4940
2017-10-15T06:50:45.796Z,5100
2017-10-15T06:51:46.511Z,5232
2017-10-15T06:52:47.230Z,5408
2017-10-15T06:53:47.950Z,5580
2017-10-15T06:54:48.681Z,5780
2017-10-15T06:55:49.401Z,5928
2017-10-15T06:56:50.126Z,6080
2017-10-15T06:57:50.842Z,6248
2017-10-15T06:58:51.570Z,6388
2017-10-15T06:59:52.299Z,6500
2017-10-15T07:00:53.017Z,6632
2017-10-15T07:01:53.740Z,6824
2017-10-15T07:02:54.474Z,7068
2017-10-15T07:03:55.193Z,7340
2017-10-15T07:04:55.915Z,7644
2017-10-15T07:05:56.633Z,7928
2017-10-15T07:06:57.353Z,8288
2017-10-15T07:07:58.074Z,8672
2017-10-15T07:08:58.794Z,8512
2017-10-15T07:09:59.514Z,8508
2017-10-15T07:11:00.236Z,8768
2017-10-15T07:12:00.957Z,9132
2017-10-15T07:13:01.677Z,9568
2017-10-15T07:14:02.396Z,9880
2017-10-15T07:15:03.133Z,10024
2017-10-15T07:16:03.864Z,10264
2017-10-15T07:17:04.605Z,10556
2017-10-15T07:18:05.321Z,10492
2017-10-15T07:19:06.056Z,10552
2017-10-15T07:20:06.779Z,10928
2017-10-15T07:21:07.503Z,11500
2017-10-15T07:22:08.224Z,11928
2017-10-15T07:23:08.961Z,12044
2017-10-15T07:24:09.693Z,12264
2017-10-15T07:25:10.418Z,12524
2017-10-15T07:26:11.154Z,12764
2017-10-15T07:27:11.878Z,12816
2017-10-15T07:28:12.602Z,12960
2017-10-15T07:29:13.327Z,12908
2017-10-15T07:30:14.048Z,12828
2017-10-15T07:31:14.771Z,12948
2017-10-15T07:32:15.495Z,12640
2017-10-15T07:33:16.221Z,12404
2017-10-15T07:34:16.945Z,12792
2017-10-15T07:35:17.670Z,13760
2017-10-15T07:36:18.403Z,14752
2017-10-15T07:37:19.140Z,15488
2017-10-15T07:38:19.862Z,16064
2017-10-15T07:39:20.596Z,16032
2017-10-15T07:40:21.322Z,16128
2017-10-15T07:41:22.049Z,16192
2017-10-15T07:42:22.776Z,16768
2017-10-15T07:43:23.499Z,16992
2017-10-15T07:44:24.225Z,17248
2017-10-15T07:45:24.950Z,17856
2017-10-15T07:46:25.675Z,17984
2017-10-15T07:47:26.404Z,18208
2017-10-15T07:48:27.128Z,18496
2017-10-15T07:49:27.854Z,18912
2017-10-15T07:50:28.582Z,19456
2017-10-15T07:51:29.308Z,19616
2017-10-15T07:52:30.036Z,19392
2017-10-15T07:53:30.763Z,19616
2017-10-15T07:54:31.494Z,20128
2017-10-15T07:55:32.236Z,20544
2017-10-15T07:56:32.967Z,20928
2017-10-15T07:57:33.692Z,21408
2017-10-15T07:58:34.419Z,22080
2017-10-15T07:59:35.151Z,22496
2017-10-15T08:00:35.884Z,22784
2017-10-15T08:01:36.616Z,22880
2017-10-15T08:02:37.353Z,23072
2017-10-15T08:03:38.113Z,23456
2017-10-15T08:04:38.843Z,23008
2017-10-15T08:05:39.575Z,22880
2017-10-15T08:06:40.305Z,22880
2017-10-15T08:07:41.037Z,23136
2017-10-15T08:08:41.766Z,24000
2017-10-15T08:09:42.510Z,24800
2017-10-15T08:10:43.239Z,24992
2017-10-15T08:11:43.976Z,25536
2017-10-15T08:12:44.714Z,26304
2017-10-15T08:13:45.445Z,27008
2017-10-15T08:14:46.175Z,27488
2017-10-15T08:15:46.912Z,27104
2017-10-15T08:16:47.642Z,27104
2017-10-15T08:17:48.371Z,27296
2017-10-15T08:18:49.103Z,26848
2017-10-15T08:19:49.850Z,27264
2017-10-15T08:20:50.577Z,28512
2017-10-15T08:21:51.309Z,29600
2017-10-15T08:22:52.040Z,29792
2017-10-15T08:23:52.769Z,29536
2017-10-15T08:24:53.499Z,28864
2017-10-15T08:25:54.229Z,29120
2017-10-15T08:26:54.959Z,29696
2017-10-15T08:27:55.693Z,30528
2017-10-15T08:28:56.425Z,31520
2017-10-15T08:29:57.151Z,32032
2017-10-15T08:30:57.880Z,32064
2017-10-15T08:31:58.607Z,32160
2017-10-15T08:32:59.347Z,31968
2017-10-15T08:34:00.074Z,30560
2017-10-15T08:35:00.814Z,30144
2017-10-15T08:36:01.558Z,31392
2017-10-15T08:37:02.300Z,33408
2017-10-15T08:38:03.026Z,34432
2017-10-15T08:39:03.756Z,34976
2017-10-15T08:40:04.485Z,35200
2017-10-15T08:41:05.215Z,35200
2017-10-15T08:42:05.943Z,35488
2017-10-15T08:43:06.686Z,35296
2017-10-15T08:44:07.429Z,34432
2017-10-15T08:45:08.161Z,34112
2017-10-15T08:46:08.894Z,33504
2017-10-15T08:47:09.619Z,32960
2017-10-15T08:48:10.348Z,33504
2017-10-15T08:49:11.078Z,33920
2017-10-15T08:50:11.807Z,34912
2017-10-15T08:51:12.537Z,35584
2017-10-15T08:52:13.267Z,35392
2017-10-15T08:53:14.000Z,34976
2017-10-15T08:54:14.732Z,34432
2017-10-15T08:55:15.472Z,34144
2017-10-15T08:56:16.202Z,34432
2017-10-15T08:57:16.931Z,35296
2017-10-15T08:58:17.660Z,35616
2017-10-15T08:59:18.394Z,36320
2017-10-15T09:00:19.125Z,36928
2017-10-15T09:01:19.867Z,37440
2017-10-15T09:02:20.598Z,38848
2017-10-15T09:03:21.340Z,40288
2017-10-15T09:04:22.070Z,40128
2017-10-15T09:05:22.803Z,39360
2017-10-15T09:06:23.532Z,38720
2017-10-15T09:07:24.263Z,38304
2017-10-15T09:08:25.007Z,38144
2017-10-15T09:09:25.738Z,38528
2017-10-15T09:10:26.470Z,39264
2017-10-15T09:11:27.202Z,39840
2017-10-15T09:12:27.934Z,40832
2017-10-15T09:13:28.678Z,42176
2017-10-15T09:14:29.409Z,43872
2017-10-15T09:15:30.142Z,44032
2017-10-15T09:16:30.874Z,43584
2017-10-15T09:17:31.607Z,42208
2017-10-15T09:18:32.351Z,41984
2017-10-15T09:19:33.097Z,41632
2017-10-15T09:20:33.829Z,42208
2017-10-15T09:21:34.577Z,42528
2017-10-15T09:22:35.305Z,43136
2017-10-15T09:23:36.051Z,43360
2017-10-15T09:24:36.788Z,44032
2017-10-15T09:25:37.513Z,44064
2017-10-15T09:26:38.247Z,44192
2017-10-15T09:27:38.977Z,44544
2017-10-15T09:28:39.710Z,44224
2017-10-15T09:29:40.443Z,43424
2017-10-15T09:30:41.175Z,42912
2017-10-15T09:31:41.919Z,42816
2017-10-15T09:32:42.663Z,43360
2017-10-15T09:33:43.398Z,43648
2017-10-15T09:34:44.131Z,44896
2017-10-15T09:35:44.862Z,45888
2017-10-15T09:36:45.597Z,46720
2017-10-15T09:37:46.330Z,46656
2017-10-15T09:38:47.062Z,47136
2017-10-15T09:39:47.793Z,47040
2017-10-15T09:40:48.527Z,47104
2017-10-15T09:41:49.259Z,46848
2017-10-15T09:42:49.991Z,47584
2017-10-15T09:43:50.726Z,48224
2017-10-15T09:44:51.461Z,48608
2017-10-15T09:45:52.196Z,49120
2017-10-15T09:46:52.930Z,49408
2017-10-15T09:47:53.665Z,49856
2017-10-15T09:48:54.398Z,50016
2017-10-15T09:49:55.133Z,48832
2017-10-15T09:50:55.867Z,47328
2017-10-15T09:51:56.604Z,46304
2017-10-15T09:52:57.338Z,46752
2017-10-15T09:53:58.073Z,46784
2017-10-15T09:54:58.809Z,47552
2017-10-15T09:55:59.544Z,47968
2017-10-15T09:57:00.278Z,48832
2017-10-15T09:58:01.021Z,48960
2017-10-15T09:59:01.748Z,49152
2017-10-15T10:00:02.494Z,48800
2017-10-15T10:01:03.227Z,48352
2017-10-15T10:02:03.962Z,49024
2017-10-15T10:03:04.702Z,49664
2017-10-15T10:04:05.438Z,51104
2017-10-15T10:05:06.173Z,52064
2017-10-15T10:06:06.912Z,51488
2017-10-15T10:07:07.658Z,51360
2017-10-15T10:08:08.396Z,52064
2017-10-15T10:09:09.136Z,51776
2017-10-15T10:10:09.883Z,51872
2017-10-15T10:11:10.618Z,51776
2017-10-15T10:12:11.355Z,51712
2017-10-15T10:13:12.106Z,51488
2017-10-15T10:14:12.844Z,50944
2017-10-15T10:15:13.576Z,50688
2017-10-15T10:16:14.317Z,49856
2017-10-15T10:17:15.050Z,48640
2017-10-15T10:18:15.792Z,47712
2017-10-15T10:19:16.532Z,47968
2017-10-15T10:20:17.270Z,49760
2017-10-15T10:21:18.011Z,50752
2017-10-15T10:22:18.746Z,50720
2017-10-15T10:23:19.483Z,51456
2017-10-15T10:24:20.217Z,51712
2017-10-15T10:25:20.967Z,51584
2017-10-15T10:26:21.704Z,50656
2017-10-15T10:27:22.445Z,49984
2017-10-15T10:28:23.182Z,48384
2017-10-15T10:29:23.920Z,47776
2017-10-15T10:30:24.658Z,47392
2017-10-15T10:31:25.396Z,46240
2017-10-15T10:32:26.138Z,45952
2017-10-15T10:33:26.884Z,45632
2017-10-15T10:34:27.624Z,45344
2017-10-15T10:35:28.364Z,46464
2017-10-15T10:36:29.114Z,46656
2017-10-15T10:37:29.872Z,46528
2017-10-15T10:38:30.625Z,45728
2017-10-15T10:39:31.381Z,45888
2017-10-15T10:40:32.123Z,45408
2017-10-15T10:41:32.868Z,46176
2017-10-15T10:42:33.624Z,46368
2017-10-15T10:43:34.368Z,46848
2017-10-15T10:44:35.114Z,46976
2017-10-15T10:45:35.859Z,46400
2017-10-15T10:46:36.599Z,46944
2017-10-15T10:47:37.341Z,46208
2017-10-15T10:48:38.084Z,46848
2017-10-15T10:49:38.826Z,46464
2017-10-15T10:50:39.580Z,46592
2017-10-15T10:51:40.317Z,47168
2017-10-15T10:52:41.071Z,48032
2017-10-15T10:53:41.826Z,48064
2017-10-15T10:54:42.577Z,47584
2017-10-15T10:55:43.323Z,47872
2017-10-15T10:56:44.073Z,47360
2017-10-15T10:57:44.820Z,46816
2017-10-15T10:58:45.572Z,46720
2017-10-15T10:59:46.311Z,46848
2017-10-15T11:00:47.059Z,47008
2017-10-15T11:01:47.800Z,46528
2017-10-15T11:02:48.550Z,47488
2017-10-15T11:03:49.291Z,48512
2017-10-15T11:04:50.033Z,48640
2017-10-15T11:05:50.774Z,49248
2017-10-15T11:06:51.513Z,47968
2017-10-15T11:07:52.264Z,47392
2017-10-15T11:08:53.000Z,47232
2017-10-15T11:09:53.754Z,47264
2017-10-15T11:10:54.494Z,47456
2017-10-15T11:11:55.239Z,47232
2017-10-15T11:12:55.995Z,46976
2017-10-15T11:13:56.737Z,46464
2017-10-15T11:14:57.476Z,46368
2017-10-15T11:15:58.215Z,45792
2017-10-15T11:16:58.960Z,46272
2017-10-15T11:17:59.713Z,45824
2017-10-15T11:19:00.454Z,46368
2017-10-15T11:20:01.191Z,45728
2017-10-15T11:21:02.547Z,46464
2017-10-15T11:22:03.290Z,45984
2017-10-15T11:23:04.029Z,46528
2017-10-15T11:24:04.771Z,46016
2017-10-15T11:25:05.509Z,46080
2017-10-15T11:26:06.252Z,47136
2017-10-15T11:27:06.994Z,46272
2017-10-15T11:28:07.732Z,46080
2017-10-15T11:29:08.474Z,46464
2017-10-15T11:30:09.241Z,47296
2017-10-15T11:31:09.964Z,46176
2017-10-15T11:32:10.718Z,45984
2017-10-15T11:33:11.459Z,46752
2017-10-15T11:34:12.197Z,47488
2017-10-15T11:35:12.951Z,46944
2017-10-15T11:36:13.694Z,46464
2017-10-15T11:37:14.454Z,45568
2017-10-15T11:38:15.207Z,45984
2017-10-15T11:39:15.950Z,45472
2017-10-15T11:40:16.708Z,45696
2017-10-15T11:41:17.452Z,45152
2017-10-15T11:42:18.195Z,44992
2017-10-15T11:43:18.939Z,44192
2017-10-15T11:44:19.683Z,44768
2017-10-15T11:45:20.429Z,45120
2017-10-15T11:46:21.172Z,45664
2017-10-15T11:47:21.928Z,46528
2017-10-15T11:48:22.671Z,46848
2017-10-15T11:49:23.414Z,45952
2017-10-15T11:50:24.156Z,45824
2017-10-15T11:51:24.896Z,46016
2017-10-15T11:52:25.649Z,46592
2017-10-15T11:53:26.390Z,46208
2017-10-15T11:54:27.135Z,45952
2017-10-15T11:55:27.877Z,44832
2017-10-15T11:56:28.617Z,44544
2017-10-15T11:57:29.362Z,44224
2017-10-15T11:58:30.112Z,44800
2017-10-15T11:59:30.856Z,44384
2017-10-15T12:00:31.594Z,43680
2017-10-15T12:01:32.340Z,43616
2017-10-15T12:02:33.083Z,43328
2017-10-15T12:03:33.822Z,42848
2017-10-15T12:04:34.564Z,43424
2017-10-15T12:05:35.305Z,43264
2017-10-15T12:06:36.048Z,43456
2017-10-15T12:07:36.787Z,41824
2017-10-15T12:08:37.540Z,41056
2017-10-15T12:09:38.280Z,40736
2017-10-15T12:10:39.021Z,40832
2017-10-15T12:11:40.380Z,40896
2017-10-15T12:12:41.123Z,39936
2017-10-15T12:13:41.877Z,40256
2017-10-15T12:14:42.620Z,39520
2017-10-15T12:15:43.361Z,39776
2017-10-15T12:16:44.107Z,39840
2017-10-15T12:17:44.847Z,39936
2017-10-15T12:18:45.588Z,39776
2017-10-15T12:19:46.327Z,39200
2017-10-15T12:20:47.068Z,38560
2017-10-15T12:21:47.821Z,39104
2017-10-15T12:22:48.562Z,38368
2017-10-15T12:23:49.302Z,38816
2017-10-15T12:24:50.043Z,38304
2017-10-15T12:25:50.785Z,37600
2017-10-15T12:26:51.524Z,37984
2017-10-15T12:27:52.261Z,37056
2017-10-15T12:28:52.998Z,36768
2017-10-15T12:29:53.733Z,35584
2017-10-15T12:30:54.477Z,30912
2017-10-15T12:31:55.213Z,23040
2017-10-15T12:32:55.957Z,24960
2017-10-15T12:33:56.696Z,18816
2017-10-15T12:34:57.430Z,19680
2017-10-15T12:35:58.166Z,32992
2017-10-15T12:36:58.901Z,37312
2017-10-15T12:37:59.633Z,36096
2017-10-15T12:39:00.367Z,35488
2017-10-15T12:40:01.101Z,34784
2017-10-15T12:41:01.832Z,35008
2017-10-15T12:42:02.567Z,35104
2017-10-15T12:43:03.298Z,35328
2017-10-15T12:44:04.032Z,34784
2017-10-15T12:45:04.765Z,34272
2017-10-15T12:46:05.500Z,33760
2017-10-15T12:47:06.243Z,33152
2017-10-15T12:48:06.977Z,32480
2017-10-15T12:49:07.724Z,32768
2017-10-15T12:50:08.468Z,33440
2017-10-15T12:51:09.205Z,33728
2017-10-15T12:52:09.951Z,34176
2017-10-15T12:53:10.686Z,34176
2017-10-15T12:54:11.431Z,33792
2017-10-15T12:55:12.187Z,33472
2017-10-15T12:56:12.916Z,33280
2017-10-15T12:57:13.655Z,32704
2017-10-15T12:58:14.398Z,33600
2017-10-15T12:59:15.137Z,33024
2017-10-15T13:00:15.871Z,32960
2017-10-15T13:01:16.606Z,32576
2017-10-15T13:02:17.344Z,32352
2017-10-15T13:03:18.079Z,31360
2017-10-15T13:04:18.815Z,30464
2017-10-15T13:05:19.556Z,30304
2017-10-15T13:06:20.290Z,30624
2017-10-15T13:07:21.023Z,31040
2017-10-15T13:08:21.761Z,31360
2017-10-15T13:09:22.496Z,32096
2017-10-15T13:10:23.232Z,32000
2017-10-15T13:11:23.963Z,32128
2017-10-15T13:12:24.700Z,31584
2017-10-15T13:13:25.434Z,30688
2017-10-15T13:14:26.169Z,30048
2017-10-15T13:15:26.901Z,28576
2017-10-15T13:16:27.635Z,28256
2017-10-15T13:17:28.367Z,27648
2017-10-15T13:18:29.112Z,28160
2017-10-15T13:19:29.849Z,28832
2017-10-15T13:20:30.579Z,28992
2017-10-15T13:21:31.323Z,28544
2017-10-15T13:22:32.069Z,27488
2017-10-15T13:23:32.802Z,26656
2017-10-15T13:24:33.533Z,26848
2017-10-15T13:25:34.263Z,23232
2017-10-15T13:26:34.995Z,26720
2017-10-15T13:27:35.739Z,26048
2017-10-15T13:28:36.469Z,26784
2017-10-15T13:29:37.199Z,26400
2017-10-15T13:30:37.929Z,26048
2017-10-15T13:31:38.662Z,25952
2017-10-15T13:32:39.393Z,26464
2017-10-15T13:33:40.121Z,26048
2017-10-15T13:34:40.852Z,24448
2017-10-15T13:35:41.595Z,23968
2017-10-15T13:36:42.338Z,23808
2017-10-15T13:37:43.080Z,24352
2017-10-15T13:38:43.811Z,23264
2017-10-15T13:39:44.543Z,23360
2017-10-15T13:40:45.272Z,23168
2017-10-15T13:41:46.002Z,22464
2017-10-15T13:42:46.729Z,22496
2017-10-15T13:43:47.459Z,23328
2017-10-15T13:44:48.200Z,22496
2017-10-15T13:45:48.928Z,21728
2017-10-15T13:46:49.658Z,21504
2017-10-15T13:47:50.389Z,21856
2017-10-15T13:48:51.124Z,21984
2017-10-15T13:49:51.846Z,21632
2017-10-15T13:50:52.577Z,21408